Time;durP1;ratioP1;P1;durP2;ratioP2;P2;SDS_P1;SDS_P2;PMS_P1;PMS_P2;Temp;Humidity;BMP_temperature;BMP_pressure;BME280_temperature;BME280_humidity;BME280_pressure;Samples;Min_cycle;Max_cycle;Signal;HPM_P1;HPM_P2
2022/09/18 00:00:08;;;;;;;16.00;1.75;;;8.80;99.90;;;;;;5033656;28;20045;-41
2022/09/18 00:02:34;;;;;;;12.45;1.55;;;10.40;99.90;;;;;;5016447;28;20103;-41
2022/09/18 00:05:00;;;;;;;17.13;1.98;;;8.70;1.00;;;;;;5034094;28;20041;-41
2022/09/18 00:07:25;;;;;;;14.85;1.30;;;10.60;1.00;;;;;;5033571;28;20057;-42
2022/09/18 00:09:51;;;;;;;12.18;3.17;;;9.80;1.00;;;;;;5033600;28;20049;-42
2022/09/18 00:12:16;;;;;;;14.43;2.65;;;9.40;1.00;;;;;;5032367;28;20553;-42
2022/09/18 00:14:43;;;;;;;16.50;2.35;;;10.80;1.00;;;;;;5015902;28;20088;-42
2022/09/18 00:17:09;;;;;;;16.73;2.28;;;10.90;99.90;;;;;;5032767;28;20057;-41
2022/09/18 00:19:35;;;;;;;11.73;2.25;;;10.90;1.00;;;;;;5033315;28;20053;-42
2022/09/18 00:22:00;;;;;;;13.85;1.83;;;11.00;99.90;;;;;;5032273;28;20045;-41
2022/09/18 00:24:26;;;;;;;11.93;1.70;;;11.30;99.90;;;;;;5033743;28;20443;-41
2022/09/18 00:26:52;;;;;;;11.95;1.20;;;9.30;99.90;;;;;;5032627;28;20045;-41
2022/09/18 00:29:18;;;;;;;9.07;1.48;;;9.40;99.90;;;;;;5036168;28;20497;-41
2022/09/18 00:31:44;;;;;;;10.38;1.77;;;10.00;99.90;;;;;;5036145;28;20041;-41
2022/09/18 00:34:13;;;;;;;12.80;1.30;;;9.70;1.00;;;;;;5037127;28;20484;-40
2022/09/18 00:36:40;;;;;;;13.57;1.15;;;9.60;1.00;;;;;;5037713;28;20041;-38
2022/09/18 00:39:06;;;;;;;9.98;1.85;;;9.50;21.20;;;;;;5019694;28;20491;-37
2022/09/18 00:41:35;;;;;;;10.43;1.35;;;11.10;1.00;;;;;;5037085;28;20128;-35
2022/09/18 00:44:30;;;;;;;11.88;1.55;;;9.70;6.00;;;;;;5035627;28;20456;-37
2022/09/18 00:47:23;;;;;;;9.55;1.20;;;10.60;99.90;;;;;;5036953;28;20053;-33
2022/09/18 00:49:52;;;;;;;14.43;1.70;;;10.70;99.90;;;;;;5036657;28;20049;-34
2022/09/18 00:52:20;;;;;;;14.82;1.48;;;9.40;1.00;;;;;;5036899;28;20427;-34
2022/09/18 00:54:55;;;;;;;9.45;1.85;;;9.90;1.00;;;;;;5037369;28;20112;-38
2022/09/18 00:57:29;;;;;;;9.30;1.63;;;9.50;1.00;;;;;;5036834;28;20052;-35
2022/09/18 00:59:55;;;;;;;15.13;1.40;;;11.00;1.00;;;;;;5036178;28;20137;-38
2022/09/18 01:02:20;;;;;;;9.38;1.50;;;11.00;1.00;;;;;;5035564;28;20049;-37
2022/09/18 01:04:48;;;;;;;11.82;2.00;;;10.40;99.90;;;;;;5036356;28;20487;-38
2022/09/18 01:07:47;;;;;;;8.80;1.30;;;10.90;99.90;;;;;;5036632;28;20119;-37
2022/09/18 01:10:36;;;;;;;15.73;1.38;;;10.50;1.00;;;;;;5036203;28;20438;-37
2022/09/18 01:13:14;;;;;;;13.00;1.35;;;10.90;12.10;;;;;;5019175;28;20509;-36
2022/09/18 01:15:46;;;;;;;10.85;1.50;;;10.10;99.90;;;;;;5036568;28;20045;-34
2022/09/18 01:18:23;;;;;;;10.90;1.13;;;8.80;99.90;;;;;;5036684;28;20049;-34
2022/09/18 01:20:52;;;;;;;8.30;1.20;;;10.30;99.90;;;;;;5036381;28;20045;-34
2022/09/18 01:23:30;;;;;;;12.23;1.02;;;8.30;99.90;;;;;;5036579;28;20404;-33
2022/09/18 01:26:17;;;;;;;12.60;1.17;;;10.10;1.00;;;;;;5035760;28;20053;-33
2022/09/18 01:29:09;;;;;;;12.93;1.63;;;10.00;1.00;;;;;;5035951;28;20392;-34
2022/09/18 01:31:46;;;;;;;13.35;1.42;;;8.80;1.00;;;;;;5035865;28;20510;-33
2022/09/18 01:34:19;;;;;;;9.60;0.80;;;8.00;55.30;;;;;;5036305;28;20380;-34
2022/09/18 01:36:54;;;;;;;17.30;1.27;;;8.10;95.80;;;;;;5036135;28;20045;-37
2022/09/18 01:39:37;;;;;;;9.52;1.23;;;9.50;99.90;;;;;;5035030;28;20088;-38
2022/09/18 01:42:05;;;;;;;14.55;1.88;;;10.00;1.00;;;;;;5035364;28;20089;-38
2022/09/18 01:44:33;;;;;;;11.93;1.42;;;10.30;99.90;;;;;;5034297;28;20147;-38
2022/09/18 01:47:02;;;;;;;6.65;1.33;;;10.50;99.90;;;;;;5035885;28;20050;-39
2022/09/18 01:49:40;;;;;;;9.85;1.52;;;10.60;99.90;;;;;;5035815;28;20060;-40
2022/09/18 01:52:10;;;;;;;23.35;1.92;;;10.90;99.90;;;;;;5035158;28;20129;-35
2022/09/18 01:54:40;;;;;;;11.82;1.50;;;10.70;99.90;;;;;;5036320;28;20076;-38
2022/09/18 01:57:16;;;;;;;9.15;1.25;;;10.60;99.90;;;;;;5035708;28;20072;-40
2022/09/18 01:59:55;;;;;;;8.60;1.92;;;11.00;99.90;;;;;;5035693;28;20037;-40
2022/09/18 02:02:33;;;;;;;17.95;2.38;;;10.70;99.90;;;;;;5018984;28;20137;-40
2022/09/18 02:05:04;;;;;;;12.45;1.63;;;10.70;99.90;;;;;;5035882;28;20138;-38
2022/09/18 02:07:41;;;;;;;9.77;1.75;;;10.40;99.90;;;;;;5036356;28;20049;-38
2022/09/18 02:10:07;;;;;;;13.23;1.92;;;10.80;99.90;;;;;;5036064;28;20052;-37
2022/09/18 02:12:36;;;;;;;9.25;1.33;;;10.20;1.00;;;;;;5035121;28;20053;-34
2022/09/18 02:15:08;;;;;;;9.73;1.33;;;10.00;99.90;;;;;;5035327;28;20068;-37
2022/09/18 02:17:48;;;;;;;12.67;1.30;;;10.00;99.90;;;;;;5051573;28;20422;-36
2022/09/18 02:20:27;;;;;;;9.38;1.30;;;10.20;99.90;;;;;;5035588;28;20276;-38
2022/09/18 02:22:58;;;;;;;10.85;1.20;;;9.90;99.90;;;;;;5035555;28;20120;-38
2022/09/18 02:25:37;;;;;;;9.82;1.17;;;10.10;1.00;;;;;;5034253;28;20500;-38
2022/09/18 02:28:06;;;;;;;9.77;1.10;;;9.90;1.00;;;;;;5035175;28;20046;-37
2022/09/18 02:30:33;;;;;;;10.55;1.27;;;10.10;1.00;;;;;;5033840;28;20140;-37
2022/09/18 02:32:59;;;;;;;8.32;1.17;;;9.80;22.80;;;;;;5034031;28;20530;-37
2022/09/18 02:35:35;;;;;;;12.43;1.52;;;9.70;99.90;;;;;;5035471;28;20081;-38
2022/09/18 02:38:18;;;;;;;7.53;1.20;;;10.00;99.90;;;;;;5035209;28;20053;-38
2022/09/18 02:40:59;;;;;;;12.65;1.63;;;9.40;99.90;;;;;;5034910;28;20049;-38
2022/09/18 02:43:56;;;;;;;5.93;1.13;;;9.90;1.00;;;;;;5034118;28;20119;-37
2022/09/18 02:46:30;;;;;;;12.95;1.45;;;10.00;99.90;;;;;;5034729;28;20128;-36
2022/09/18 02:49:31;;;;;;;9.10;1.25;;;10.40;99.90;;;;;;5034618;28;20088;-38
2022/09/18 02:52:12;;;;;;;7.22;1.67;;;10.30;99.90;;;;;;5032953;28;20407;-39
2022/09/18 02:54:40;;;;;;;10.95;1.25;;;10.40;99.90;;;;;;5034886;28;20041;-40
2022/09/18 02:57:20;;;;;;;7.70;1.50;;;10.20;99.90;;;;;;5035096;28;20052;-40
2022/09/18 02:59:50;;;;;;;7.30;1.52;;;10.50;99.90;;;;;;5034187;28;20092;-41
2022/09/18 03:02:17;;;;;;;12.77;1.45;;;10.20;99.90;;;;;;5035091;28;20376;-39
2022/09/18 03:04:43;;;;;;;9.30;1.13;;;10.20;1.00;;;;;;5034960;28;20041;-40
2022/09/18 03:07:13;;;;;;;11.43;1.25;;;10.00;1.00;;;;;;5033804;28;20042;-40
2022/09/18 03:09:39;;;;;;;10.73;1.85;;;10.20;99.90;;;;;;5034329;28;20089;-41
2022/09/18 03:12:04;;;;;;;11.30;1.67;;;10.00;1.00;;;;;;5033108;28;20126;-40
2022/09/18 03:14:30;;;;;;;9.60;2.03;;;9.00;99.90;;;;;;5033080;28;20042;-39
2022/09/18 03:16:56;;;;;;;10.73;1.58;;;10.50;99.90;;;;;;5034173;28;20045;-40
2022/09/18 03:19:21;;;;;;;12.60;1.80;;;10.50;99.90;;;;;;5033015;28;20041;-40
2022/09/18 03:21:49;;;;;;;10.35;1.48;;;9.10;1.00;;;;;;5033969;28;20037;-39
2022/09/18 03:24:15;;;;;;;7.32;1.98;;;11.00;1.00;;;;;;5034075;28;20124;-39
2022/09/18 03:26:41;;;;;;;8.60;1.45;;;10.90;1.00;;;;;;5034040;28;20132;-39
2022/09/18 03:29:11;;;;;;;8.10;1.40;;;8.60;1.00;;;;;;5034279;28;20053;-37
2022/09/18 03:31:36;;;;;;;8.98;1.23;;;10.80;1.00;;;;;;5032996;28;20057;-34
2022/09/18 03:34:03;;;;;;;8.75;2.40;;;8.60;1.00;;;;;;5032951;28;20494;-33
2022/09/18 03:36:29;;;;;;;8.57;1.25;;;8.70;1.00;;;;;;5016539;28;20057;-33
2022/09/18 03:38:55;;;;;;;11.68;1.02;;;10.10;1.00;;;;;;5032697;28;20435;-33
2022/09/18 03:41:21;;;;;;;7.07;1.55;;;10.90;67.70;;;;;;5032905;28;20060;-33
2022/09/18 03:43:47;;;;;;;12.95;1.63;;;10.80;99.90;;;;;;5033532;28;20137;-32
2022/09/18 03:46:13;;;;;;;9.40;1.27;;;11.10;99.90;;;;;;5016382;28;20060;-32
2022/09/18 03:48:39;;;;;;;15.88;2.60;;;9.20;99.90;;;;;;5032690;28;20041;-31
2022/09/18 03:51:05;;;;;;;17.17;1.83;;;9.50;99.90;;;;;;5033725;28;20053;-31
2022/09/18 03:53:30;;;;;;;14.73;1.23;;;10.90;99.90;;;;;;5032560;28;20045;-32
2022/09/18 03:55:56;;;;;;;11.40;1.42;;;9.10;99.90;;;;;;5033705;28;20136;-31
2022/09/18 03:58:22;;;;;;;15.07;2.53;;;9.20;99.90;;;;;;5033942;28;20045;-31
2022/09/18 04:00:48;;;;;;;8.77;1.40;;;11.20;99.90;;;;;;5033631;28;20494;-32
2022/09/18 04:03:13;;;;;;;13.05;1.45;;;10.90;99.90;;;;;;5037529;28;20471;-32
2022/09/18 04:05:39;;;;;;;9.00;1.55;;;9.00;99.90;;;;;;5040194;28;20041;-31
2022/09/18 04:08:05;;;;;;;8.95;1.00;;;9.70;99.90;;;;;;5040256;28;20045;-30
2022/09/18 04:10:32;;;;;;;7.97;1.88;;;10.70;99.90;;;;;;5038769;28;20128;-31
2022/09/18 04:12:57;;;;;;;8.65;1.00;;;8.80;99.90;;;;;;5040088;28;20119;-32
2022/09/18 04:15:23;;;;;;;14.95;2.03;;;11.20;99.90;;;;;;5040601;28;20136;-32
2022/09/18 04:17:49;;;;;;;12.32;1.92;;;11.20;99.90;;;;;;5039796;28;20128;-31
2022/09/18 04:20:15;;;;;;;15.98;1.27;;;10.90;99.90;;;;;;5040081;28;20111;-33
2022/09/18 04:22:40;;;;;;;11.10;1.30;;;8.60;99.90;;;;;;5040051;28;20132;-32
2022/09/18 04:25:07;;;;;;;7.78;1.38;;;9.70;99.90;;;;;;5039165;28;20052;-33
2022/09/18 04:27:35;;;;;;;9.20;1.60;;;11.00;99.90;;;;;;5040807;28;20045;-32
2022/09/18 04:30:00;;;;;;;9.98;1.00;;;8.70;99.90;;;;;;5040571;28;20059;-32
2022/09/18 04:32:26;;;;;;;6.45;1.25;;;8.90;99.90;;;;;;5039996;28;20049;-31
2022/09/18 04:34:53;;;;;;;16.52;1.23;;;11.10;99.90;;;;;;5039053;28;20365;-32
2022/09/18 04:37:18;;;;;;;8.95;1.48;;;11.00;99.90;;;;;;5039923;28;20084;-31
2022/09/18 04:39:45;;;;;;;9.48;1.17;;;11.00;99.90;;;;;;5039279;28;20053;-31
2022/09/18 04:42:11;;;;;;;7.43;0.90;;;10.20;99.90;;;;;;5039256;28;20056;-31
2022/09/18 04:44:37;;;;;;;5.63;1.10;;;9.70;99.90;;;;;;5039446;28;20049;-31
2022/09/18 04:47:03;;;;;;;16.70;2.22;;;10.80;99.90;;;;;;5039507;28;20407;-30
2022/09/18 04:49:29;;;;;;;9.63;1.30;;;10.90;99.90;;;;;;5039782;28;20491;-31
2022/09/18 04:51:54;;;;;;;8.27;0.77;;;9.40;99.90;;;;;;5039813;28;20045;-31
2022/09/18 04:54:20;;;;;;;10.07;1.00;;;8.70;99.90;;;;;;5039387;28;20053;-31
2022/09/18 04:56:46;;;;;;;5.72;1.00;;;10.80;99.90;;;;;;5022041;28;20059;-32
2022/09/18 04:59:11;;;;;;;3.97;0.60;;;10.10;99.90;;;;;;5022334;28;20092;-31
2022/09/18 05:01:37;;;;;;;6.93;1.00;;;8.60;99.90;;;;;;5038763;28;20155;-30
2022/09/18 05:04:03;;;;;;;15.50;1.17;;;10.20;99.90;;;;;;5039335;28;20120;-31
2022/09/18 05:06:28;;;;;;;12.50;1.30;;;8.90;99.90;;;;;;5039691;28;20049;-31
2022/09/18 05:08:54;;;;;;;11.68;0.90;;;11.40;99.90;;;;;;5039350;28;20045;-32
2022/09/18 05:11:20;;;;;;;4.70;0.82;;;11.20;99.90;;;;;;5039646;28;20081;-32
2022/09/18 05:13:51;;;;;;;10.43;1.20;;;8.90;99.90;;;;;;5021017;28;20061;-31
2022/09/18 05:16:17;;;;;;;5.47;0.68;;;10.90;99.90;;;;;;5036431;28;20111;-32
2022/09/18 05:18:43;;;;;;;2.83;0.40;;;10.80;1.00;;;;;;5018981;28;20090;-30
2022/09/18 05:21:09;;;;;;;6.57;0.65;;;10.70;99.90;;;;;;5036676;28;20053;-31
2022/09/18 05:23:35;;;;;;;6.45;0.50;;;9.20;99.90;;;;;;5035504;28;20128;-31
2022/09/18 05:26:03;;;;;;;6.40;0.75;;;10.60;1.00;;;;;;5018943;28;20052;-30
2022/09/18 05:28:29;;;;;;;8.23;0.93;;;10.90;1.00;;;;;;5035085;28;20050;-30
2022/09/18 05:30:59;;;;;;;11.73;1.23;;;9.30;28.20;;;;;;5035534;28;20048;-29
2022/09/18 05:33:25;;;;;;;9.52;1.02;;;8.30;88.10;;;;;;5035230;28;20045;-30
2022/09/18 05:35:55;;;;;;;7.50;0.85;;;9.90;93.20;;;;;;5018423;28;20511;-29
2022/09/18 05:38:21;;;;;;;6.47;0.93;;;11.10;35.80;;;;;;5036080;28;20103;-29
2022/09/18 05:40:47;;;;;;;6.40;0.57;;;9.90;1.00;;;;;;5036008;28;20128;-29
2022/09/18 05:43:14;;;;;;;14.45;1.10;;;8.80;99.90;;;;;;5034560;28;20137;-29
2022/09/18 05:45:41;;;;;;;8.05;0.40;;;10.30;99.90;;;;;;5035587;28;20081;-29
2022/09/18 05:48:07;;;;;;;9.07;0.80;;;11.00;1.00;;;;;;5035517;28;20089;-31
2022/09/18 05:50:35;;;;;;;9.68;0.80;;;10.80;1.00;;;;;;5034937;28;20100;-30
2022/09/18 05:53:12;;;;;;;9.70;1.10;;;9.90;1.00;;;;;;5035182;28;20057;-30
2022/09/18 05:55:38;;;;;;;9.52;1.35;;;11.30;1.00;;;;;;5034205;28;20045;-30
2022/09/18 05:58:06;;;;;;;11.13;2.15;;;11.50;99.90;;;;;;5035738;28;20572;-30
2022/09/18 06:00:33;;;;;;;10.85;1.48;;;11.40;99.90;;;;;;5035651;28;20045;-29
2022/09/18 06:03:01;;;;;;;12.10;2.13;;;8.90;99.90;;;;;;5035631;28;20442;-30
2022/09/18 06:05:29;;;;;;;9.23;1.23;;;9.00;99.90;;;;;;5035573;28;20049;-29
2022/09/18 06:07:57;;;;;;;17.23;2.78;;;11.70;99.90;;;;;;5035497;28;20502;-28
2022/09/18 06:10:23;;;;;;;12.32;2.13;;;9.60;99.90;;;;;;5035540;28;20041;-28
2022/09/18 06:12:49;;;;;;;12.25;1.80;;;11.80;99.90;;;;;;5035882;28;20053;-29
2022/09/18 06:15:15;;;;;;;11.05;1.25;;;11.80;99.90;;;;;;5035397;28;20128;-28
2022/09/18 06:17:41;;;;;;;6.57;0.88;;;9.60;99.90;;;;;;5017568;28;20395;-29
2022/09/18 06:20:08;;;;;;;8.25;0.73;;;11.10;1.00;;;;;;5035683;28;20102;-30
2022/09/18 06:22:35;;;;;;;8.30;0.77;;;11.30;1.00;;;;;;5035235;28;20049;-29
2022/09/18 06:25:01;;;;;;;4.57;0.77;;;11.20;1.00;;;;;;5035503;28;20045;-29
2022/09/18 06:27:27;;;;;;;5.18;0.73;;;10.60;1.00;;;;;;5035108;28;20564;-29
2022/09/18 06:29:53;;;;;;;3.50;0.90;;;10.10;99.90;;;;;;5034308;28;20053;-30
2022/09/18 06:32:19;;;;;;;5.20;0.80;;;10.10;1.00;;;;;;5035082;28;20160;-30
2022/09/18 06:34:45;;;;;;;4.00;0.63;;;9.90;99.90;;;;;;5034953;28;20450;-30
2022/09/18 06:37:12;;;;;;;3.85;0.50;;;10.80;1.00;;;;;;5018154;28;20049;-30
2022/09/18 06:39:38;;;;;;;5.05;0.95;;;10.90;1.00;;;;;;5035481;28;20053;-30
2022/09/18 06:42:04;;;;;;;4.95;0.52;;;10.60;1.00;;;;;;5033704;28;20484;-30
2022/09/18 06:44:29;;;;;;;6.75;1.08;;;10.80;1.00;;;;;;5034983;28;20496;-30
2022/09/18 06:46:55;;;;;;;4.13;0.77;;;10.90;93.30;;;;;;5034806;28;20125;-30
2022/09/18 06:49:21;;;;;;;8.23;0.80;;;10.10;99.90;;;;;;5034627;28;20044;-30
2022/09/18 06:51:47;;;;;;;7.50;0.80;;;10.20;1.00;;;;;;5034689;28;20053;-30
2022/09/18 06:54:14;;;;;;;6.22;0.85;;;11.20;1.00;;;;;;5033441;28;20091;-30
2022/09/18 06:56:40;;;;;;;3.80;0.70;;;10.20;1.00;;;;;;5033488;28;20553;-31
2022/09/18 06:59:06;;;;;;;8.95;0.80;;;11.30;99.90;;;;;;5034572;28;20045;-30
2022/09/18 07:01:32;;;;;;;5.63;0.65;;;10.00;99.90;;;;;;5033593;28;20511;-30
2022/09/18 07:03:58;;;;;;;3.63;0.30;;;10.50;99.90;;;;;;5034447;28;20041;-31
2022/09/18 07:06:23;;;;;;;4.72;0.47;;;10.00;99.90;;;;;;5034420;28;20041;-30
2022/09/18 07:08:49;;;;;;;6.80;1.13;;;11.30;99.90;;;;;;5034358;28;20107;-30
2022/09/18 07:11:15;;;;;;;4.40;0.45;;;10.20;99.90;;;;;;5034623;28;20129;-30
2022/09/18 07:13:41;;;;;;;5.95;0.73;;;11.40;99.90;;;;;;5033273;28;20494;-30
2022/09/18 07:16:07;;;;;;;6.63;0.90;;;9.80;99.90;;;;;;5033054;28;20124;-32
2022/09/18 07:18:33;;;;;;;8.60;1.10;;;11.30;99.90;;;;;;5032956;28;20045;-31
2022/09/18 07:20:59;;;;;;;6.57;0.77;;;9.40;1.00;;;;;;5033545;28;20454;-31
2022/09/18 07:23:26;;;;;;;9.23;1.30;;;9.40;1.00;;;;;;5034076;28;20045;-30
2022/09/18 07:25:52;;;;;;;8.30;0.90;;;11.60;1.00;;;;;;5033650;28;20080;-31
2022/09/18 07:28:17;;;;;;;6.68;1.58;;;9.90;77.40;;;;;;5034026;28;20049;-30
2022/09/18 07:30:44;;;;;;;8.85;1.15;;;11.80;99.90;;;;;;5033058;28;20056;-31
2022/09/18 07:33:09;;;;;;;7.35;0.80;;;11.60;99.90;;;;;;5033996;28;20125;-30
2022/09/18 07:35:35;;;;;;;9.52;1.90;;;11.20;99.90;;;;;;5033777;28;20462;-31
2022/09/18 07:38:04;;;;;;;9.63;1.40;;;9.50;99.90;;;;;;5032742;28;20045;-30
2022/09/18 07:40:30;;;;;;;10.45;2.20;;;9.90;99.90;;;;;;5033911;28;20060;-30
2022/09/18 07:43:01;;;;;;;6.55;1.05;;;11.30;99.90;;;;;;5033658;28;20092;-31
2022/09/18 07:45:27;;;;;;;9.20;1.27;;;11.90;99.90;;;;;;5034327;28;20435;-30
2022/09/18 07:47:53;;;;;;;10.90;2.00;;;11.50;99.90;;;;;;5033668;28;20045;-30
2022/09/18 07:50:19;;;;;;;7.43;0.80;;;9.20;99.90;;;;;;5033763;28;20045;-30
2022/09/18 07:52:49;;;;;;;13.35;2.95;;;11.90;99.90;;;;;;5033696;28;20045;-31
2022/09/18 07:55:15;;;;;;;9.68;1.20;;;10.70;99.90;;;;;;5034441;28;20124;-32
2022/09/18 07:57:40;;;;;;;6.28;0.90;;;9.20;99.90;;;;;;5016031;28;20156;-31
2022/09/18 08:00:09;;;;;;;7.65;1.00;;;9.20;99.90;;;;;;5033237;28;20045;-31
2022/09/18 08:02:34;;;;;;;11.73;2.03;;;9.90;99.90;;;;;;5033618;28;20046;-30
2022/09/18 08:05:00;;;;;;;7.57;0.80;;;9.10;99.90;;;;;;5033680;28;20084;-30
2022/09/18 08:07:25;;;;;;;12.30;1.83;;;10.40;99.90;;;;;;5033580;28;20111;-31
2022/09/18 08:09:51;;;;;;;10.88;1.58;;;11.50;99.90;;;;;;5032418;28;20507;-31
2022/09/18 08:12:17;;;;;;;7.28;0.98;;;10.70;99.90;;;;;;5033526;28;20502;-31
2022/09/18 08:14:43;;;;;;;5.82;0.88;;;9.90;99.90;;;;;;5033481;28;20045;-31
2022/09/18 08:17:09;;;;;;;6.15;0.70;;;9.20;99.90;;;;;;5033493;28;20119;-30
2022/09/18 08:19:34;;;;;;;6.00;0.80;;;11.80;99.90;;;;;;5033057;28;20077;-30
2022/09/18 08:22:00;;;;;;;8.30;0.75;;;10.90;99.90;;;;;;5032253;28;20037;-29
2022/09/18 08:24:26;;;;;;;6.45;0.93;;;10.90;99.90;;;;;;5015741;28;20049;-30
2022/09/18 08:26:52;;;;;;;8.07;1.38;;;12.00;99.90;;;;;;5033380;28;20050;-30
2022/09/18 08:29:18;;;;;;;8.15;0.88;;;11.70;99.90;;;;;;5032430;28;20098;-30
2022/09/18 08:31:45;;;;;;;6.93;0.65;;;9.20;99.90;;;;;;5033367;28;20430;-29
2022/09/18 08:34:11;;;;;;;13.90;1.52;;;10.80;99.90;;;;;;5034090;28;20047;-28
2022/09/18 08:36:37;;;;;;;11.70;1.38;;;12.00;99.90;;;;;;5033312;28;20045;-30
2022/09/18 08:39:02;;;;;;;6.75;0.80;;;10.70;99.90;;;;;;5033547;28;20049;-31
2022/09/18 08:42:02;;;;;;;8.55;0.93;;;9.30;99.90;;;;;;5033257;28;20045;-29
2022/09/18 08:44:29;;;;;;;13.68;1.85;;;9.60;99.90;;;;;;5033599;28;20061;-30
2022/09/18 08:47:07;;;;;;;6.57;2.38;;;10.00;99.90;;;;;;5033239;28;20056;-31
2022/09/18 08:49:47;;;;;;;11.10;1.83;;;11.00;99.90;;;;;;5036048;28;20487;-31
2022/09/18 08:52:16;;;;;;;7.50;1.15;;;11.10;99.90;;;;;;5036845;28;20053;-31
2022/09/18 08:55:18;;;;;;;6.85;0.95;;;9.20;99.90;;;;;;5037640;28;20038;-31
2022/09/18 08:57:51;;;;;;;6.22;1.15;;;9.80;99.90;;;;;;5036867;28;20041;-30
2022/09/18 09:00:30;;;;;;;11.77;1.33;;;10.60;99.90;;;;;;5037502;28;20085;-32
2022/09/18 09:03:33;;;;;;;10.27;1.10;;;10.10;99.90;;;;;;5035829;28;20088;-31
2022/09/18 09:06:26;;;;;;;13.05;1.15;;;11.40;99.90;;;;;;5033024;28;20107;-32
2022/09/18 09:09:09;;;;;;;15.07;1.95;;;11.40;99.90;;;;;;5035994;28;20431;-32
2022/09/18 09:12:05;;;;;;;13.93;1.52;;;11.00;99.90;;;;;;5018915;28;20057;-31
2022/09/18 09:15:00;;;;;;;11.77;1.38;;;11.30;99.90;;;;;;5037073;28;20050;-32
2022/09/18 09:17:46;;;;;;;6.53;1.40;;;9.20;99.90;;;;;;5020004;28;20049;-30
2022/09/18 09:20:22;;;;;;;13.15;1.65;;;11.30;99.90;;;;;;5036747;28;20151;-29
2022/09/18 09:23:03;;;;;;;12.60;1.55;;;11.60;99.90;;;;;;5035255;28;20045;-29
2022/09/18 09:25:53;;;;;;;9.90;1.27;;;9.80;99.90;;;;;;5036238;28;20092;-29
2022/09/18 09:28:51;;;;;;;12.13;1.50;;;11.50;99.90;;;;;;5037195;28;20045;-31
2022/09/18 09:31:21;;;;;;;9.77;1.80;;;10.50;99.90;;;;;;5034381;28;20057;-31
2022/09/18 09:33:56;;;;;;;8.52;1.42;;;9.80;99.90;;;;;;5036079;28;20049;-29
2022/09/18 09:36:27;;;;;;;13.23;1.10;;;10.50;99.90;;;;;;5034689;28;20376;-30
2022/09/18 09:39:25;;;;;;;8.57;0.82;;;10.80;99.90;;;;;;5036940;28;20073;-30
2022/09/18 09:42:04;;;;;;;14.45;1.42;;;9.40;99.90;;;;;;5034793;28;20061;-31
2022/09/18 09:44:42;;;;;;;7.82;1.17;;;11.80;99.90;;;;;;5036271;28;20084;-30
2022/09/18 09:47:17;;;;;;;14.70;2.53;;;12.10;99.90;;;;;;5035790;28;20052;-29
2022/09/18 09:50:21;;;;;;;13.13;1.40;;;12.10;99.90;;;;;;5035574;28;20049;-30
2022/09/18 09:52:47;;;;;;;11.60;1.13;;;9.70;99.90;;;;;;5027844;28;20111;-30
2022/09/18 09:55:12;;;;;;;13.52;1.70;;;12.30;99.90;;;;;;5035363;28;20372;-30
2022/09/18 09:57:55;;;;;;;15.45;1.92;;;9.70;99.90;;;;;;5035423;28;20492;-30
2022/09/18 10:00:22;;;;;;;14.27;1.65;;;9.70;99.90;;;;;;5034726;28;20080;-30
2022/09/18 10:03:09;;;;;;;14.48;1.45;;;10.90;99.90;;;;;;5035623;28;20049;-30
2022/09/18 10:05:55;;;;;;;14.35;1.50;;;12.20;99.90;;;;;;5018303;28;20041;-30
2022/09/18 10:08:40;;;;;;;12.52;1.65;;;10.00;99.90;;;;;;5036390;28;20048;-30
2022/09/18 10:11:10;;;;;;;12.90;1.33;;;10.10;99.90;;;;;;5034428;28;20096;-30
2022/09/18 10:13:45;;;;;;;17.80;2.15;;;10.20;99.90;;;;;;5035994;28;20377;-31
2022/09/18 10:16:17;;;;;;;8.27;1.25;;;11.60;99.90;;;;;;5034739;28;20053;-31
2022/09/18 10:18:45;;;;;;;20.55;1.70;;;10.60;99.70;;;;;;5035403;28;20141;-32
2022/09/18 10:21:15;;;;;;;11.75;1.90;;;10.90;69.80;;;;;;5018110;28;20140;-31
2022/09/18 10:23:43;;;;;;;13.75;1.90;;;12.30;97.00;;;;;;5034314;28;20115;-32
2022/09/18 10:26:38;;;;;;;13.80;2.38;;;11.30;1.00;;;;;;5035188;28;20045;-31
2022/09/18 10:29:04;;;;;;;17.58;2.00;;;11.80;1.00;;;;;;5032968;28;20049;-32
2022/09/18 10:31:50;;;;;;;14.13;1.73;;;12.30;1.00;;;;;;5033860;28;20500;-32
2022/09/18 10:34:41;;;;;;;18.98;2.97;;;12.40;99.90;;;;;;5017274;28;20134;-32
2022/09/18 10:37:28;;;;;;;11.32;1.80;;;12.00;99.90;;;;;;5034080;28;20563;-32
2022/09/18 10:39:56;;;;;;;10.93;1.48;;;12.10;48.50;;;;;;5035528;28;20049;-31
2022/09/18 10:42:27;;;;;;;14.20;2.10;;;12.30;1.00;;;;;;5034776;28;20049;-32
2022/09/18 10:45:22;;;;;;;8.63;1.60;;;12.50;1.00;;;;;;5035951;28;20045;-32
2022/09/18 10:47:48;;;;;;;12.90;1.23;;;12.50;1.00;;;;;;5035291;28;20060;-33
2022/09/18 10:50:16;;;;;;;9.50;1.70;;;13.00;99.90;;;;;;5035541;28;20404;-32
2022/09/18 10:52:47;;;;;;;12.88;1.40;;;12.80;1.00;;;;;;5034768;28;20081;-33
2022/09/18 10:55:19;;;;;;;11.40;1.38;;;13.10;99.90;;;;;;5034928;28;20049;-33
2022/09/18 10:58:00;;;;;;;12.48;1.80;;;13.00;8.80;;;;;;5035436;28;20045;-33
2022/09/18 11:00:28;;;;;;;12.57;1.30;;;13.00;99.90;;;;;;5035153;28;20475;-34
2022/09/18 11:03:00;;;;;;;6.50;1.40;;;13.20;1.00;;;;;;5034808;28;20053;-39
2022/09/18 11:05:34;;;;;;;6.30;1.38;;;13.30;99.90;;;;;;5034537;28;20041;-36
2022/09/18 11:08:05;;;;;;;10.20;1.35;;;13.30;99.90;;;;;;5033372;28;20096;-38
2022/09/18 11:10:31;;;;;;;7.97;0.93;;;13.30;99.90;;;;;;5033440;28;20045;-34
2022/09/18 11:13:00;;;;;;;8.45;1.00;;;13.30;1.00;;;;;;5034178;28;20052;-34
2022/09/18 11:15:34;;;;;;;13.65;1.98;;;13.40;1.00;;;;;;5034189;28;20045;-35
2022/09/18 11:18:03;;;;;;;8.25;1.00;;;13.50;99.90;;;;;;5035098;28;20041;-35
2022/09/18 11:20:47;;;;;;;11.57;1.52;;;13.50;99.90;;;;;;5034197;28;20613;-35
2022/09/18 11:23:28;;;;;;;10.02;2.03;;;13.60;99.90;;;;;;5035038;28;20049;-36
2022/09/18 11:26:14;;;;;;;7.47;1.33;;;13.50;1.00;;;;;;5032991;28;20046;-37
2022/09/18 11:28:40;;;;;;;14.35;1.60;;;13.50;99.90;;;;;;5034922;28;20056;-38
2022/09/18 11:31:17;;;;;;;5.47;1.00;;;13.60;1.00;;;;;;5034040;28;20391;-37
2022/09/18 11:33:54;;;;;;;9.00;0.98;;;13.60;43.70;;;;;;5034283;28;20049;-35
2022/09/18 11:36:26;;;;;;;7.63;1.10;;;13.40;99.90;;;;;;5016570;28;20514;-38
2022/09/18 11:38:53;;;;;;;8.45;0.75;;;13.60;1.00;;;;;;5032975;28;20041;-37
2022/09/18 11:41:34;;;;;;;11.30;0.95;;;13.50;99.90;;;;;;5034159;28;20060;-39
2022/09/18 11:44:22;;;;;;;12.43;1.33;;;13.70;1.00;;;;;;5034209;28;20049;-40
2022/09/18 11:47:10;;;;;;;7.07;1.20;;;14.00;99.90;;;;;;5034427;28;20379;-39
2022/09/18 11:49:48;;;;;;;12.48;1.17;;;13.70;1.00;;;;;;5033843;28;20052;-39
2022/09/18 11:52:37;;;;;;;7.30;1.08;;;13.60;1.00;;;;;;5033792;28;20041;-40
2022/09/18 11:55:10;;;;;;;12.55;1.85;;;13.00;99.90;;;;;;5033677;28;20045;-39
2022/09/18 11:57:40;;;;;;;7.45;1.40;;;13.80;99.90;;;;;;5034269;28;20053;-40
2022/09/18 12:00:18;;;;;;;7.35;1.20;;;13.70;99.90;;;;;;5033944;28;20064;-40
2022/09/18 12:03:08;;;;;;;8.77;1.30;;;13.80;99.90;;;;;;5033036;28;20117;-40
2022/09/18 12:05:51;;;;;;;9.18;1.02;;;13.50;99.90;;;;;;5032690;28;20065;-38
2022/09/18 12:08:35;;;;;;;8.13;1.30;;;13.70;11.40;;;;;;5034441;28;20085;-40
2022/09/18 12:11:16;;;;;;;7.78;1.13;;;13.70;99.90;;;;;;5033555;28;20435;-40
2022/09/18 12:14:20;;;;;;;7.40;0.93;;;13.90;2.30;;;;;;5032882;28;20494;-39
2022/09/18 12:17:02;;;;;;;;;;;13.70;1.00;;;;;;5021656;28;20131;-40
2022/09/18 12:19:34;;;;;;;8.65;0.93;;;13.60;96.50;;;;;;5034028;28;20003;-41
2022/09/18 12:22:12;;;;;;;10.87;1.10;;;13.60;99.90;;;;;;5033167;28;20561;-41
2022/09/18 12:24:37;;;;;;;7.18;0.80;;;13.30;1.00;;;;;;5035047;28;20454;-37
2022/09/18 12:27:03;;;;;;;11.80;1.35;;;13.30;99.90;;;;;;5035875;28;20037;-41
2022/09/18 12:29:32;;;;;;;6.25;0.90;;;13.30;99.90;;;;;;5037863;28;20045;-41
2022/09/18 12:32:24;;;;;;;7.10;1.50;;;13.30;1.00;;;;;;5037322;28;20059;-41
2022/09/18 12:35:03;;;;;;;5.68;1.25;;;13.20;99.90;;;;;;5038063;28;20045;-41
2022/09/18 12:37:38;;;;;;;10.40;1.00;;;13.20;1.00;;;;;;5038117;28;20448;-41
2022/09/18 12:40:19;;;;;;;6.38;0.80;;;13.30;99.90;;;;;;5037744;28;20053;-40
2022/09/18 12:43:11;;;;;;;8.95;1.45;;;13.30;99.90;;;;;;5035939;28;20049;-41
2022/09/18 12:46:04;;;;;;;8.60;1.73;;;13.40;1.00;;;;;;5036429;28;20061;-41
2022/09/18 12:48:55;;;;;;;6.65;0.85;;;13.50;99.90;;;;;;5036730;28;20045;-41
2022/09/18 12:51:34;;;;;;;6.95;0.98;;;13.60;99.90;;;;;;5035481;28;20051;-41
2022/09/18 12:54:26;;;;;;;7.13;1.17;;;13.90;99.90;;;;;;5037194;28;20443;-41
2022/09/18 12:56:55;;;;;;;7.47;1.20;;;13.80;99.90;;;;;;5036953;28;20096;-42
2022/09/18 12:59:47;;;;;;;9.10;1.00;;;13.80;1.00;;;;;;5037658;28;20400;-41
2022/09/18 13:03:01;;;;;;;10.98;1.10;;;13.80;11.80;;;;;;5037686;28;20175;-41
2022/09/18 13:05:38;;;;;;;7.70;1.75;;;13.50;1.00;;;;;;5031781;28;20053;-41
2022/09/18 13:08:11;;;;;;;7.97;1.80;;;13.70;1.00;;;;;;5035757;28;20507;-41
2022/09/18 13:10:46;;;;;;;6.82;0.73;;;13.90;99.90;;;;;;5018943;28;20095;-41
2022/09/18 13:13:37;;;;;;;12.43;1.60;;;14.20;99.90;;;;;;5036649;28;20049;-41